createdAt,value
2018-04-24T00:00:43.109Z,8.10
2018-04-24T00:03:10.513Z,8.00
2018-04-24T00:05:37.936Z,9.63
2018-04-24T00:08:05.397Z,12.67
2018-04-24T00:10:33.336Z,12.73
2018-04-24T00:13:02.205Z,13.60
2018-04-24T00:15:31.312Z,16.43
2018-04-24T00:17:59.499Z,9.23
2018-04-24T00:20:27.000Z,11.27
2018-04-24T00:22:54.413Z,8.63
2018-04-24T00:25:21.832Z,11.80
2018-04-24T00:27:49.252Z,9.63
2018-04-24T00:30:16.656Z,11.77
2018-04-24T00:32:44.140Z,10.87
2018-04-24T00:35:12.433Z,10.90
2018-04-24T00:37:39.849Z,9.60
2018-04-24T00:40:07.378Z,13.63
2018-04-24T00:42:34.816Z,10.20
2018-04-24T00:45:03.025Z,10.60
2018-04-24T00:47:30.448Z,9.67
2018-04-24T00:49:57.877Z,17.13
2018-04-24T00:52:25.345Z,9.37
2018-04-24T00:54:52.748Z,12.47
2018-04-24T00:57:21.209Z,12.47
2018-04-24T00:59:48.634Z,8.70
2018-04-24T01:02:16.824Z,13.60
2018-04-24T01:04:45.032Z,10.07
2018-04-24T01:07:12.440Z,12.00
2018-04-24T01:09:39.860Z,11.17
2018-04-24T01:12:07.329Z,9.50
2018-04-24T01:14:35.556Z,12.73
2018-04-24T01:17:08.432Z,12.30
2018-04-24T01:19:36.356Z,12.83
2018-04-24T01:22:05.446Z,9.70
2018-04-24T01:24:32.959Z,11.33
2018-04-24T01:27:00.376Z,11.30
2018-04-24T01:29:27.791Z,12.07
2018-04-24T01:31:55.232Z,17.53
2018-04-24T01:34:22.661Z,10.20
2018-04-24T01:36:50.080Z,11.20
2018-04-24T01:39:17.499Z,13.80
2018-04-24T01:41:44.954Z,14.80
2018-04-24T01:44:13.132Z,16.63
2018-04-24T01:46:41.325Z,13.13
2018-04-24T01:49:09.504Z,18.33
2018-04-24T01:51:37.689Z,18.57
2018-04-24T01:54:05.126Z,12.67
2018-04-24T01:56:34.067Z,16.98
2018-04-24T01:59:02.246Z,13.10
2018-04-24T02:01:30.434Z,15.30
2018-04-24T02:03:58.615Z,15.80
2018-04-24T02:06:26.821Z,15.17
2018-04-24T02:08:54.246Z,12.50
2018-04-24T02:11:21.661Z,14.73
2018-04-24T02:13:49.081Z,12.83
2018-04-24T02:16:16.496Z,13.30
2018-04-24T02:18:43.978Z,17.63
2018-04-24T02:21:12.252Z,19.53
2018-04-24T02:23:39.684Z,15.17
2018-04-24T02:26:07.170Z,16.77
2018-04-24T02:28:35.346Z,19.67
2018-04-24T02:31:02.790Z,20.40
2018-04-24T02:33:30.229Z,14.20
2018-04-24T02:35:57.705Z,21.80
2018-04-24T02:38:25.172Z,17.20
2018-04-24T02:40:52.600Z,17.90
2018-04-24T02:43:20.811Z,18.30
2018-04-24T02:45:48.278Z,18.20
2018-04-24T02:48:15.765Z,19.93
2018-04-24T02:50:43.188Z,16.97
2018-04-24T02:53:10.634Z,20.97
2018-04-24T02:55:38.063Z,23.57
2018-04-24T02:58:05.514Z,17.80
2018-04-24T03:00:34.641Z,21.20
2018-04-24T03:03:02.102Z,15.63
2018-04-24T03:05:29.532Z,22.70
2018-04-24T03:07:56.948Z,24.87
2018-04-24T03:10:24.383Z,17.50
2018-04-24T03:12:52.592Z,20.33
2018-04-24T03:15:19.999Z,17.07
2018-04-24T03:17:47.501Z,39.17
2018-04-24T03:20:15.707Z,17.00
2018-04-24T03:22:43.128Z,20.63
2018-04-24T03:25:10.558Z,14.50
2018-04-24T03:27:37.986Z,17.77
2018-04-24T03:30:05.559Z,19.10
2018-04-24T03:32:33.773Z,18.77
2018-04-24T03:35:01.205Z,18.90
2018-04-24T03:37:28.637Z,18.93
2018-04-24T03:39:56.080Z,16.73
2018-04-24T03:42:23.504Z,18.63
2018-04-24T03:44:50.923Z,20.62
2018-04-24T03:47:18.368Z,19.90
2018-04-24T03:49:46.561Z,32.20
2018-04-24T03:52:14.741Z,22.43
2018-04-24T03:54:42.967Z,18.62
2018-04-24T03:57:10.455Z,18.27
2018-04-24T03:59:38.568Z,17.20
2018-04-24T04:02:06.005Z,22.10
2018-04-24T04:04:33.437Z,19.50
2018-04-24T04:07:00.876Z,20.10
2018-04-24T04:09:29.064Z,19.73
2018-04-24T04:11:57.283Z,41.10
2018-04-24T04:14:24.699Z,19.40
2018-04-24T04:16:52.140Z,24.20
2018-04-24T04:19:31.646Z,22.10
2018-04-24T04:22:11.661Z,24.90
2018-04-24T04:24:49.209Z,25.60
2018-04-24T04:27:17.415Z,25.73
2018-04-24T04:29:44.882Z,22.90
2018-04-24T04:32:12.451Z,17.77
2018-04-24T04:34:39.783Z,23.00
2018-04-24T04:37:07.213Z,21.80
2018-04-24T04:39:34.635Z,24.13
2018-04-24T04:42:02.856Z,28.43
2018-04-24T04:44:30.276Z,24.63
2018-04-24T04:46:57.700Z,27.33
2018-04-24T04:49:25.142Z,23.57
2018-04-24T04:51:53.333Z,23.67
2018-04-24T04:54:21.520Z,23.40
2018-04-24T04:56:48.932Z,25.57
2018-04-24T04:59:16.366Z,24.93
2018-04-24T05:01:43.823Z,21.33
2018-04-24T05:04:12.014Z,22.23
2018-04-24T05:06:39.453Z,22.60
2018-04-24T05:09:07.871Z,27.80
2018-04-24T05:11:35.292Z,25.20
2018-04-24T05:14:02.729Z,25.43
2018-04-24T05:16:30.213Z,21.83
2018-04-24T05:18:57.659Z,22.63
2018-04-24T05:21:25.088Z,29.63
2018-04-24T05:23:52.527Z,25.40
2018-04-24T05:26:19.932Z,27.70
2018-04-24T05:28:47.351Z,29.40
2018-04-24T05:31:14.828Z,24.87
2018-04-24T05:33:42.266Z,28.58
2018-04-24T05:36:09.676Z,27.97
2018-04-24T05:38:37.689Z,24.80
2018-04-24T05:41:05.899Z,30.77
2018-04-24T05:43:36.357Z,26.47
2018-04-24T05:46:03.803Z,33.53
2018-04-24T05:48:31.234Z,31.67
2018-04-24T05:50:58.682Z,27.53
2018-04-24T05:53:26.109Z,29.23
2018-04-24T05:55:53.555Z,30.90
2018-04-24T05:58:21.752Z,30.30
2018-04-24T06:00:49.968Z,24.90
2018-04-24T06:03:17.380Z,23.83
2018-04-24T06:05:44.814Z,25.93
2018-04-24T06:08:12.649Z,21.00
2018-04-24T06:10:40.087Z,29.13
2018-04-24T06:13:09.089Z,21.08
2018-04-24T06:15:36.501Z,18.73
2018-04-24T06:18:04.117Z,24.80
2018-04-24T06:20:31.589Z,27.43
2018-04-24T06:22:59.032Z,20.70
2018-04-24T06:25:26.456Z,25.33
2018-04-24T06:27:54.670Z,18.23
2018-04-24T06:30:22.117Z,17.60
2018-04-24T06:32:50.308Z,19.77
2018-04-24T06:35:17.740Z,22.80
2018-04-24T06:37:45.172Z,18.53
2018-04-24T06:40:12.606Z,23.33
2018-04-24T06:42:40.835Z,23.03
2018-04-24T06:45:09.711Z,20.27
2018-04-24T06:47:37.214Z,18.57
2018-04-24T06:50:04.634Z,16.30
2018-04-24T06:52:32.912Z,25.27
2018-04-24T06:55:01.205Z,22.13
2018-04-24T06:57:29.306Z,21.43
2018-04-24T06:59:57.535Z,20.20
2018-04-24T07:02:25.084Z,18.93
2018-04-24T07:04:52.492Z,19.97
2018-04-24T07:07:19.916Z,18.80
2018-04-24T07:09:47.332Z,27.00
2018-04-24T07:12:14.760Z,20.73
2018-04-24T07:14:42.210Z,25.40
2018-04-24T07:17:09.635Z,17.83
2018-04-24T07:19:37.157Z,25.13
2018-04-24T07:22:04.587Z,24.23
2018-04-24T07:24:32.009Z,20.10
2018-04-24T07:26:59.499Z,22.77
2018-04-24T07:29:26.919Z,17.98
2018-04-24T07:31:54.384Z,29.60
2018-04-24T07:34:21.880Z,17.77
2018-04-24T07:36:50.196Z,31.53
2018-04-24T07:39:17.790Z,19.40
2018-04-24T07:41:45.213Z,22.50
2018-04-24T07:44:12.669Z,18.43
2018-04-24T07:46:41.046Z,18.12
2018-04-24T07:49:08.659Z,20.13
2018-04-24T07:51:36.121Z,19.03
2018-04-24T07:54:03.595Z,16.03
2018-04-24T07:56:31.010Z,17.20
2018-04-24T07:58:59.222Z,19.80
2018-04-24T08:01:26.646Z,16.63
2018-04-24T08:03:54.068Z,23.90
2018-04-24T08:06:21.492Z,19.80
2018-04-24T08:08:49.675Z,18.73
2018-04-24T08:11:17.184Z,21.67
2018-04-24T08:13:44.613Z,24.53
2018-04-24T08:16:12.792Z,19.83
2018-04-24T08:18:40.790Z,14.80
2018-04-24T08:21:08.208Z,18.20
2018-04-24T08:23:35.703Z,20.63
2018-04-24T08:26:03.172Z,15.40
2018-04-24T08:28:30.597Z,19.33
2018-04-24T08:30:58.019Z,15.07
2018-04-24T08:33:25.438Z,21.97
2018-04-24T08:35:52.906Z,18.50
2018-04-24T08:38:20.341Z,18.13
2018-04-24T08:40:48.671Z,20.97
2018-04-24T08:43:16.120Z,18.30
2018-04-24T08:45:43.544Z,21.70
2018-04-24T08:48:12.282Z,24.87
2018-04-24T08:50:39.710Z,20.27
2018-04-24T08:53:07.219Z,16.30
2018-04-24T08:55:35.393Z,19.50
2018-04-24T08:58:03.661Z,23.70
2018-04-24T09:00:31.131Z,20.07
2018-04-24T09:02:58.533Z,21.80
2018-04-24T09:05:25.970Z,23.35
2018-04-24T09:07:53.479Z,22.53
2018-04-24T09:10:20.904Z,20.00
2018-04-24T09:12:48.440Z,21.00
2018-04-24T09:15:15.890Z,22.70
2018-04-24T09:17:43.301Z,22.47
2018-04-24T09:20:10.844Z,33.57
2018-04-24T09:22:38.264Z,24.97
2018-04-24T09:25:06.488Z,22.90
2018-04-24T09:27:33.975Z,26.50
2018-04-24T09:30:02.251Z,24.70
2018-04-24T09:32:29.665Z,21.70
2018-04-24T09:34:57.168Z,22.37
2018-04-24T09:37:24.612Z,23.60
2018-04-24T09:39:52.784Z,25.80
2018-04-24T09:42:21.760Z,24.83
2018-04-24T09:44:49.188Z,25.17
2018-04-24T09:47:17.389Z,21.87
2018-04-24T09:49:44.848Z,29.60
2018-04-24T09:52:13.553Z,26.15
2018-04-24T09:54:40.976Z,22.80
2018-04-24T09:57:08.455Z,23.13
2018-04-24T09:59:35.988Z,27.20
2018-04-24T10:02:03.603Z,21.83
2018-04-24T10:04:31.029Z,21.13
2018-04-24T10:06:58.461Z,21.63
2018-04-24T10:09:25.883Z,19.70
2018-04-24T10:11:53.309Z,19.23
2018-04-24T10:14:20.774Z,22.70
2018-04-24T10:16:48.209Z,20.30
2018-04-24T10:19:15.636Z,23.80
2018-04-24T10:21:44.211Z,19.00
2018-04-24T10:24:11.657Z,18.90
2018-04-24T10:26:39.074Z,25.07
2018-04-24T10:29:06.524Z,24.63
2018-04-24T10:31:34.097Z,21.93
2018-04-24T10:34:01.513Z,22.93
2018-04-24T10:36:29.884Z,33.03
2018-04-24T10:38:57.316Z,27.37
2018-04-24T10:41:24.789Z,20.50
2018-04-24T10:43:53.090Z,26.53
2018-04-24T10:46:20.554Z,23.67
2018-04-24T10:48:48.041Z,21.50
2018-04-24T10:51:15.496Z,23.57
2018-04-24T10:53:42.900Z,24.87
2018-04-24T10:56:10.336Z,24.20
2018-04-24T10:58:37.762Z,30.70
2018-04-24T11:01:06.022Z,21.70
2018-04-24T11:03:33.505Z,25.30
2018-04-24T11:06:00.909Z,25.90
2018-04-24T11:08:28.330Z,25.73
2018-04-24T11:10:55.749Z,22.70
2018-04-24T11:13:23.166Z,28.43
2018-04-24T11:15:50.696Z,30.53
2018-04-24T11:18:18.121Z,22.93
2018-04-24T11:20:45.541Z,38.80
2018-04-24T11:23:12.980Z,29.13
2018-04-24T11:25:40.428Z,27.50
2018-04-24T11:28:08.626Z,25.63
2018-04-24T11:30:36.829Z,27.23
2018-04-24T11:33:04.240Z,27.73
2018-04-24T11:38:13.792Z,25.23
2018-04-24T11:40:41.213Z,28.57
2018-04-24T11:43:08.648Z,25.87
2018-04-24T11:45:36.057Z,23.60
2018-04-24T11:48:03.490Z,26.97
2018-04-24T11:50:30.924Z,30.00
2018-04-24T11:52:58.432Z,28.77
2018-04-24T11:55:25.865Z,38.87
2018-04-24T11:57:53.292Z,43.33
2018-04-24T12:00:20.804Z,30.40
2018-04-24T12:02:48.340Z,25.10
2018-04-24T12:05:15.692Z,22.63
2018-04-24T12:07:43.123Z,22.80
2018-04-24T12:10:10.552Z,23.43
2018-04-24T12:12:38.045Z,28.60
2018-04-24T12:15:05.516Z,24.90
2018-04-24T12:17:33.197Z,23.33
2018-04-24T12:20:00.628Z,26.33
2018-04-24T12:22:28.065Z,26.83
2018-04-24T12:24:55.472Z,26.77
2018-04-24T12:27:23.664Z,24.87
2018-04-24T12:29:51.881Z,27.20
2018-04-24T12:32:19.312Z,31.97
2018-04-24T12:34:47.507Z,33.50
2018-04-24T12:37:14.988Z,32.83
2018-04-24T12:39:43.141Z,34.93
2018-04-24T12:42:10.570Z,32.90
2018-04-24T12:44:38.009Z,38.33
2018-04-24T12:47:05.488Z,30.10
2018-04-24T12:49:32.942Z,35.00
2018-04-24T12:52:00.415Z,27.93
2018-04-24T12:54:27.836Z,30.33
2018-04-24T12:56:55.356Z,38.87
2018-04-24T12:59:23.525Z,30.27
2018-04-24T13:01:51.708Z,33.83
2018-04-24T13:04:19.133Z,30.77
2018-04-24T13:06:47.507Z,34.03
2018-04-24T13:09:14.912Z,33.47
2018-04-24T13:11:42.345Z,31.67
2018-04-24T13:14:09.811Z,33.63
2018-04-24T13:16:37.340Z,31.90
2018-04-24T13:19:05.561Z,34.80
2018-04-24T13:21:33.022Z,28.03
2018-04-24T13:24:00.432Z,27.07
2018-04-24T13:26:28.628Z,30.37
2018-04-24T13:28:56.072Z,26.30
2018-04-24T13:31:23.523Z,28.20
2018-04-24T13:33:50.948Z,28.03
2018-04-24T13:36:19.178Z,29.07
2018-04-24T13:38:47.345Z,31.23
2018-04-24T13:41:14.794Z,27.23
2018-04-24T13:43:42.199Z,29.87
2018-04-24T13:46:09.661Z,29.23
2018-04-24T13:48:37.081Z,30.20
2018-04-24T13:51:04.527Z,32.80
2018-04-24T13:53:31.973Z,34.40
2018-04-24T13:55:59.416Z,37.30
2018-04-24T13:58:27.608Z,29.80
2018-04-24T14:00:55.130Z,31.20
2018-04-24T14:03:22.470Z,34.17
2018-04-24T14:05:49.904Z,38.90
2018-04-24T14:08:18.724Z,38.17
2018-04-24T14:10:46.125Z,37.00
2018-04-24T14:13:13.540Z,40.13
2018-04-24T14:15:41.745Z,39.63
2018-04-24T14:18:09.163Z,42.07
2018-04-24T14:20:36.694Z,39.20
2018-04-24T14:23:04.194Z,44.43
2018-04-24T14:25:31.615Z,37.53
2018-04-24T14:27:59.789Z,38.83
2018-04-24T14:30:27.982Z,42.33
2018-04-24T14:32:55.400Z,40.10
2018-04-24T14:35:22.865Z,43.50
2018-04-24T14:37:50.293Z,43.70
2018-04-24T14:40:18.664Z,43.27
2018-04-24T14:42:46.924Z,44.50
2018-04-24T14:45:15.037Z,50.30
2018-04-24T14:47:43.257Z,47.13
2018-04-24T14:50:11.477Z,51.10
2018-04-24T14:52:38.920Z,51.00
2018-04-24T14:55:06.353Z,45.80
2018-04-24T14:57:34.604Z,55.27
2018-04-24T15:00:02.026Z,53.28
2018-04-24T15:02:29.457Z,56.30
2018-04-24T15:04:57.642Z,44.13
2018-04-24T15:07:25.171Z,46.17
2018-04-24T15:09:52.615Z,52.83
2018-04-24T15:12:20.044Z,51.93
2018-04-24T15:14:47.468Z,48.33
2018-04-24T15:17:14.914Z,42.50
2018-04-24T15:19:42.398Z,46.47
2018-04-24T15:22:09.828Z,48.50
2018-04-24T15:24:37.261Z,46.13
2018-04-24T15:27:04.744Z,40.67
2018-04-24T15:29:32.161Z,36.20
2018-04-24T15:31:59.600Z,38.40
2018-04-24T15:34:27.021Z,42.13
2018-04-24T15:36:54.480Z,42.10
2018-04-24T15:39:21.904Z,42.00
2018-04-24T15:41:50.637Z,49.17
2018-04-24T15:44:19.752Z,50.17
2018-04-24T15:46:47.179Z,43.83
2018-04-24T15:49:14.624Z,39.20
2018-04-24T15:51:42.059Z,39.13
2018-04-24T15:54:09.480Z,45.23
2018-04-24T15:56:36.920Z,39.13
2018-04-24T15:59:04.376Z,43.13
2018-04-24T16:01:31.801Z,45.03
2018-04-24T16:03:59.996Z,44.77
2018-04-24T16:06:28.171Z,45.70
2018-04-24T16:08:56.365Z,43.03
2018-04-24T16:11:24.680Z,46.40
2018-04-24T16:13:52.273Z,37.57
2018-04-24T16:16:20.640Z,39.70
2018-04-24T16:18:48.101Z,39.87
2018-04-24T16:21:15.533Z,36.03
2018-04-24T16:23:43.054Z,38.27
2018-04-24T16:26:10.470Z,39.00
2018-04-24T16:28:37.899Z,33.40
2018-04-24T16:31:05.312Z,35.00
2018-04-24T16:33:32.830Z,37.00
2018-04-24T16:36:00.234Z,35.00
2018-04-24T16:38:27.673Z,36.40
2018-04-24T16:40:55.077Z,32.83
2018-04-24T16:43:22.501Z,33.40
2018-04-24T16:45:49.964Z,36.90
2018-04-24T16:48:17.417Z,41.93
2018-04-24T16:50:44.849Z,35.93
2018-04-24T16:53:12.284Z,35.20
2018-04-24T16:55:39.704Z,35.33
2018-04-24T16:58:07.897Z,34.70
2018-04-24T17:00:36.154Z,40.37
2018-04-24T17:03:03.529Z,40.50
2018-04-24T17:05:31.723Z,42.07
2018-04-24T17:07:59.153Z,39.63
2018-04-24T17:10:26.595Z,45.87
2018-04-24T17:12:54.174Z,37.93
2018-04-24T17:15:22.636Z,41.45
2018-04-24T17:17:51.744Z,39.23
2018-04-24T17:20:19.966Z,37.43
2018-04-24T17:22:47.380Z,37.57
2018-04-24T17:25:14.888Z,34.77
2018-04-24T17:27:42.363Z,31.13
2018-04-24T17:30:10.557Z,31.23
2018-04-24T17:32:38.055Z,29.93
2018-04-24T17:35:05.720Z,30.23
2018-04-24T17:37:33.140Z,33.43
2018-04-24T17:40:01.331Z,34.13
2018-04-24T17:42:29.536Z,42.73
2018-04-24T17:44:57.034Z,44.90
2018-04-24T17:47:24.456Z,35.10
2018-04-24T17:49:53.274Z,34.90
2018-04-24T17:52:22.363Z,37.77
2018-04-24T17:54:49.971Z,36.13
2018-04-24T17:57:18.158Z,36.50
2018-04-24T17:59:45.600Z,32.70
2018-04-24T18:02:13.790Z,46.03
2018-04-24T18:04:41.978Z,39.57
2018-04-24T18:07:10.152Z,31.60
2018-04-24T18:09:38.385Z,31.83
2018-04-24T18:12:05.785Z,32.83
2018-04-24T18:14:33.232Z,28.80
2018-04-24T18:17:00.676Z,34.78
2018-04-24T18:19:28.183Z,31.40
2018-04-24T18:21:55.605Z,32.27
2018-04-24T18:24:23.904Z,37.72
2018-04-24T18:26:51.326Z,34.50
2018-04-24T18:29:18.839Z,35.80
2018-04-24T18:31:47.025Z,34.00
2018-04-24T18:34:14.493Z,34.00
2018-04-24T18:36:41.883Z,28.60
2018-04-24T18:39:09.328Z,31.77
2018-04-24T18:41:37.491Z,29.47
2018-04-24T18:44:05.818Z,29.80
2018-04-24T18:46:33.257Z,32.20
2018-04-24T18:49:01.465Z,33.27
2018-04-24T18:51:28.934Z,33.87
2018-04-24T18:53:56.353Z,35.33
2018-04-24T18:56:23.777Z,33.47
2018-04-24T18:58:51.220Z,36.57
2018-04-24T19:01:18.705Z,33.87
2018-04-24T19:03:46.876Z,38.73
2018-04-24T19:06:15.074Z,35.67
2018-04-24T19:08:42.495Z,39.77
2018-04-24T19:11:09.915Z,39.17
2018-04-24T19:13:37.456Z,35.23
2018-04-24T19:16:05.677Z,37.97
2018-04-24T19:18:38.842Z,42.43
2018-04-24T19:21:07.024Z,37.10
2018-04-24T19:23:34.464Z,42.50
2018-04-24T19:26:01.892Z,43.43
2018-04-24T19:28:29.341Z,44.13
2018-04-24T19:30:57.528Z,47.37
2018-04-24T19:33:25.734Z,42.13
2018-04-24T19:35:55.099Z,46.90
2018-04-24T19:38:22.538Z,49.07
2018-04-24T19:40:55.685Z,43.63
2018-04-24T19:43:23.103Z,44.60
2018-04-24T19:45:50.537Z,53.67
2018-04-24T19:48:24.386Z,48.27
2018-04-24T19:50:51.812Z,49.77
2018-04-24T19:53:19.999Z,49.20
2018-04-24T19:55:47.428Z,50.20
2018-04-24T19:58:14.839Z,47.87
2018-04-24T20:00:43.041Z,50.03
2018-04-24T20:03:10.460Z,52.40
2018-04-24T20:05:37.893Z,48.63
2018-04-24T20:08:05.329Z,59.13
2018-04-24T20:10:33.623Z,52.73
2018-04-24T20:13:00.976Z,54.47
2018-04-24T20:15:28.400Z,57.33
2018-04-24T20:17:55.829Z,50.67
2018-04-24T20:20:24.952Z,52.30
2018-04-24T20:22:52.380Z,52.00
2018-04-24T20:25:20.620Z,51.90
2018-04-24T20:27:48.044Z,52.60
2018-04-24T20:30:15.456Z,56.70
2018-04-24T20:32:42.884Z,52.10
2018-04-24T20:35:10.316Z,49.53
2018-04-24T20:37:37.762Z,48.67
2018-04-24T20:40:05.188Z,56.73
2018-04-24T20:42:33.412Z,53.33
2018-04-24T20:45:00.898Z,52.10
2018-04-24T20:47:28.433Z,63.23
2018-04-24T20:49:55.762Z,52.60
2018-04-24T20:52:23.184Z,51.13
2018-04-24T20:54:50.618Z,52.63
2018-04-24T20:57:18.034Z,57.23
2018-04-24T20:59:46.236Z,63.53
2018-04-24T21:02:13.668Z,58.23
2018-04-24T21:04:41.102Z,59.17
2018-04-24T21:07:08.544Z,65.63
2018-04-24T21:09:36.005Z,62.90
2018-04-24T21:12:03.506Z,61.10
2018-04-24T21:14:30.944Z,61.70
2018-04-24T21:16:58.384Z,57.30
2018-04-24T21:19:25.889Z,61.20
2018-04-24T21:21:53.324Z,61.97
2018-04-24T21:24:20.789Z,77.10
2018-04-24T21:26:48.368Z,61.50
2018-04-24T21:29:16.527Z,65.27
2018-04-24T21:31:44.725Z,66.83
2018-04-24T21:34:12.149Z,64.17
2018-04-24T21:36:39.587Z,69.83
2018-04-24T21:39:06.992Z,71.07
2018-04-24T21:41:34.427Z,67.50
2018-04-24T21:44:01.859Z,65.93
2018-04-24T21:46:30.166Z,67.30
2018-04-24T21:48:58.764Z,65.27
2018-04-24T21:51:26.186Z,65.73
2018-04-24T21:53:53.606Z,66.30
2018-04-24T21:56:21.016Z,61.17
2018-04-24T21:58:49.228Z,65.85
2018-04-24T22:01:19.080Z,61.33
2018-04-24T22:03:46.498Z,67.57
2018-04-24T22:06:13.908Z,65.00
2018-04-24T22:08:41.329Z,68.67
2018-04-24T22:11:08.852Z,63.10
2018-04-24T22:13:36.305Z,67.30
2018-04-24T22:16:03.747Z,69.67
2018-04-24T22:18:31.172Z,66.80
2018-04-24T22:20:58.673Z,64.37
2018-04-24T22:23:26.130Z,66.80
2018-04-24T22:25:54.232Z,74.60
2018-04-24T22:28:21.767Z,68.87
2018-04-24T22:30:49.171Z,71.87
2018-04-24T22:33:17.412Z,69.63
2018-04-24T22:35:44.832Z,73.40
2018-04-24T22:38:13.015Z,68.77
2018-04-24T22:40:40.432Z,64.77
2018-04-24T22:43:07.856Z,71.67
2018-04-24T22:45:35.276Z,70.57
2018-04-24T22:48:04.116Z,68.30
2018-04-24T22:50:31.527Z,68.53
2018-04-24T22:52:59.132Z,75.27
2018-04-24T22:55:27.479Z,76.03
2018-04-24T22:57:55.653Z,71.23
2018-04-24T23:00:23.844Z,78.40
2018-04-24T23:02:52.029Z,83.03
2018-04-24T23:05:20.569Z,79.70
2018-04-24T23:07:47.991Z,71.77
2018-04-24T23:10:28.143Z,74.20
2018-04-24T23:13:07.256Z,80.50
2018-04-24T23:15:46.647Z,69.73
2018-04-24T23:18:26.684Z,74.50
2018-04-24T23:20:53.645Z,75.07
2018-04-24T23:23:21.065Z,80.93
2018-04-24T23:25:48.476Z,98.73
2018-04-24T23:28:16.001Z,74.13
2018-04-24T23:30:43.416Z,71.43
2018-04-24T23:33:10.905Z,71.17
2018-04-24T23:35:38.331Z,74.93
2018-04-24T23:38:05.755Z,73.65
2018-04-24T23:40:33.935Z,78.00
2018-04-24T23:43:01.349Z,74.67
2018-04-24T23:45:28.792Z,78.97
2018-04-24T23:47:56.203Z,76.27
2018-04-24T23:50:23.665Z,80.90
2018-04-24T23:52:51.041Z,74.93
2018-04-24T23:55:18.456Z,67.23
2018-04-24T23:57:46.632Z,67.40
